sensor_id;sensor_type;location;lat;lon;timestamp;pressure;altitude;pressure_sealevel;temperature;humidity
61474;BME280;53694;49.784;30.150;2023-05-02T00:00:32;100354.34;;;5.29;68.80
61474;BME280;53694;49.784;30.150;2023-05-02T00:01:34;100365.75;;;5.31;68.57
61474;BME280;53694;49.784;30.150;2023-05-02T00:02:35;100364.12;;;5.30;68.22
61474;BME280;53694;49.784;30.150;2023-05-02T00:03:37;100361.39;;;5.30;68.11
61474;BME280;53694;49.784;30.150;2023-05-02T00:04:39;100362.52;;;5.29;68.14
61474;BME280;53694;49.784;30.150;2023-05-02T00:05:40;100360.59;;;5.30;68.35
61474;BME280;53694;49.784;30.150;2023-05-02T00:06:42;100357.87;;;5.30;67.98
61474;BME280;53694;49.784;30.150;2023-05-02T00:07:44;100365.23;;;5.29;67.75
61474;BME280;53694;49.784;30.150;2023-05-02T00:08:47;100367.48;;;5.27;67.68
61474;BME280;53694;49.784;30.150;2023-05-02T00:09:48;100363.76;;;5.23;67.55
61474;BME280;53694;49.784;30.150;2023-05-02T00:10:50;100369.30;;;5.18;67.52
61474;BME280;53694;49.784;30.150;2023-05-02T00:11:51;100366.69;;;5.13;67.70
61474;BME280;53694;49.784;30.150;2023-05-02T00:12:53;100369.34;;;5.04;67.62
61474;BME280;53694;49.784;30.150;2023-05-02T00:13:54;100361.89;;;4.96;67.57
61474;BME280;53694;49.784;30.150;2023-05-02T00:14:56;100370.17;;;4.91;67.65
61474;BME280;53694;49.784;30.150;2023-05-02T00:15:57;100366.77;;;4.85;67.88
61474;BME280;53694;49.784;30.150;2023-05-02T00:16:59;100364.97;;;4.81;68.10
61474;BME280;53694;49.784;30.150;2023-05-02T00:18:00;100367.59;;;4.72;67.94
61474;BME280;53694;49.784;30.150;2023-05-02T00:19:02;100367.59;;;4.72;67.94
61474;BME280;53694;49.784;30.150;2023-05-02T00:20:04;100366.59;;;4.68;68.43
61474;BME280;53694;49.784;30.150;2023-05-02T00:21:06;100369.39;;;4.63;68.90
61474;BME280;53694;49.784;30.150;2023-05-02T00:22:08;100364.58;;;4.60;69.16
61474;BME280;53694;49.784;30.150;2023-05-02T00:23:09;100371.73;;;4.56;69.21
61474;BME280;53694;49.784;30.150;2023-05-02T00:24:10;100368.81;;;4.52;69.37
61474;BME280;53694;49.784;30.150;2023-05-02T00:25:12;100371.33;;;4.48;69.85
61474;BME280;53694;49.784;30.150;2023-05-02T00:26:14;100378.47;;;4.44;69.96
61474;BME280;53694;49.784;30.150;2023-05-02T00:27:15;100364.67;;;4.41;70.26
61474;BME280;53694;49.784;30.150;2023-05-02T00:28:17;100373.45;;;4.38;70.40
61474;BME280;53694;49.784;30.150;2023-05-02T00:29:18;100371.02;;;4.36;70.60
61474;BME280;53694;49.784;30.150;2023-05-02T00:30:20;100372.03;;;4.40;70.61
61474;BME280;53694;49.784;30.150;2023-05-02T00:31:21;100371.11;;;4.59;70.25
61474;BME280;53694;49.784;30.150;2023-05-02T00:32:23;100372.92;;;5.27;69.52
61474;BME280;53694;49.784;30.150;2023-05-02T00:33:24;100372.92;;;5.27;69.52
61474;BME280;53694;49.784;30.150;2023-05-02T00:34:29;100376.58;;;5.67;68.25
61474;BME280;53694;49.784;30.150;2023-05-02T00:35:32;100375.70;;;6.03;67.14
61474;BME280;53694;49.784;30.150;2023-05-02T00:36:34;100375.67;;;6.25;66.38
61474;BME280;53694;49.784;30.150;2023-05-02T00:37:35;100369.63;;;6.37;65.85
61474;BME280;53694;49.784;30.150;2023-05-02T00:38:37;100370.73;;;6.36;65.30
61474;BME280;53694;49.784;30.150;2023-05-02T00:39:38;100379.06;;;6.31;64.50
61474;BME280;53694;49.784;30.150;2023-05-02T00:40:47;100377.09;;;6.23;64.48
61474;BME280;53694;49.784;30.150;2023-05-02T00:41:57;100388.28;;;6.13;64.88
61474;BME280;53694;49.784;30.150;2023-05-02T00:42:58;100382.09;;;5.98;65.00
61474;BME280;53694;49.784;30.150;2023-05-02T00:44:00;100379.74;;;5.83;64.99
61474;BME280;53694;49.784;30.150;2023-05-02T00:45:02;100392.33;;;5.70;65.01
61474;BME280;53694;49.784;30.150;2023-05-02T00:46:05;100383.09;;;5.58;65.19
61474;BME280;53694;49.784;30.150;2023-05-02T00:47:06;100384.44;;;5.46;65.25
61474;BME280;53694;49.784;30.150;2023-05-02T00:48:09;100381.97;;;5.36;65.40
61474;BME280;53694;49.784;30.150;2023-05-02T00:49:11;100393.08;;;5.26;65.92
61474;BME280;53694;49.784;30.150;2023-05-02T00:50:13;100387.27;;;5.19;66.32
61474;BME280;53694;49.784;30.150;2023-05-02T00:51:14;100391.52;;;5.11;66.40
61474;BME280;53694;49.784;30.150;2023-05-02T00:52:16;100386.80;;;5.03;66.49
61474;BME280;53694;49.784;30.150;2023-05-02T00:53:18;100385.59;;;4.95;66.82
61474;BME280;53694;49.784;30.150;2023-05-02T00:54:20;100397.19;;;4.87;66.72
61474;BME280;53694;49.784;30.150;2023-05-02T00:55:21;100390.55;;;4.80;66.94
61474;BME280;53694;49.784;30.150;2023-05-02T00:56:23;100397.01;;;4.70;67.02
61474;BME280;53694;49.784;30.150;2023-05-02T00:57:24;100387.95;;;4.61;67.02
61474;BME280;53694;49.784;30.150;2023-05-02T00:58:26;100391.06;;;4.54;66.78
61474;BME280;53694;49.784;30.150;2023-05-02T00:59:29;100401.84;;;4.45;67.01
61474;BME280;53694;49.784;30.150;2023-05-02T01:00:45;100396.81;;;4.39;67.59
61474;BME280;53694;49.784;30.150;2023-05-02T01:03:14;100401.62;;;4.28;68.84
61474;BME280;53694;49.784;30.150;2023-05-02T01:05:57;100411.09;;;4.17;69.65
61474;BME280;53694;49.784;30.150;2023-05-02T01:08:18;100415.30;;;4.09;70.46
61474;BME280;53694;49.784;30.150;2023-05-02T01:11:02;100407.05;;;4.14;70.74
61474;BME280;53694;49.784;30.150;2023-05-02T01:13:27;100401.92;;;4.95;68.28
61474;BME280;53694;49.784;30.150;2023-05-02T01:14:30;100406.75;;;5.48;66.19
61474;BME280;53694;49.784;30.150;2023-05-02T01:15:33;100402.03;;;5.85;65.46
61474;BME280;53694;49.784;30.150;2023-05-02T01:16:40;100406.52;;;6.04;64.65
61474;BME280;53694;49.784;30.150;2023-05-02T01:17:44;100412.97;;;6.08;63.81
61474;BME280;53694;49.784;30.150;2023-05-02T01:18:49;100408.08;;;5.96;63.13
61474;BME280;53694;49.784;30.150;2023-05-02T01:19:54;100402.97;;;5.81;63.05
61474;BME280;53694;49.784;30.150;2023-05-02T01:21:00;100402.05;;;5.63;63.33
61474;BME280;53694;49.784;30.150;2023-05-02T01:22:04;100404.95;;;5.44;63.93
61474;BME280;53694;49.784;30.150;2023-05-02T01:23:10;100402.88;;;5.27;64.67
61474;BME280;53694;49.784;30.150;2023-05-02T01:24:16;100397.77;;;5.12;65.55
61474;BME280;53694;49.784;30.150;2023-05-02T01:25:25;100397.00;;;4.97;65.78
61474;BME280;53694;49.784;30.150;2023-05-02T01:26:41;100399.43;;;4.85;66.22
61474;BME280;53694;49.784;30.150;2023-05-02T01:27:50;100399.42;;;4.71;66.83
61474;BME280;53694;49.784;30.150;2023-05-02T01:29:01;100399.42;;;4.58;67.61
61474;BME280;53694;49.784;30.150;2023-05-02T01:30:05;100402.36;;;4.47;68.02
61474;BME280;53694;49.784;30.150;2023-05-02T01:31:10;100403.26;;;4.29;68.89
61474;BME280;53694;49.784;30.150;2023-05-02T01:32:14;100403.26;;;4.29;68.89
61474;BME280;53694;49.784;30.150;2023-05-02T01:33:17;100403.64;;;4.22;68.85
61474;BME280;53694;49.784;30.150;2023-05-02T01:34:21;100404.33;;;4.14;69.02
61474;BME280;53694;49.784;30.150;2023-05-02T01:35:25;100410.45;;;4.06;69.43
61474;BME280;53694;49.784;30.150;2023-05-02T01:36:29;100406.22;;;4.00;69.94
61474;BME280;53694;49.784;30.150;2023-05-02T01:37:31;100401.69;;;3.95;70.56
61474;BME280;53694;49.784;30.150;2023-05-02T01:38:34;100402.27;;;3.92;70.56
61474;BME280;53694;49.784;30.150;2023-05-02T01:39:39;100398.53;;;3.88;70.53
61474;BME280;53694;49.784;30.150;2023-05-02T01:40:46;100400.36;;;3.93;70.72
61474;BME280;53694;49.784;30.150;2023-05-02T01:41:49;100397.56;;;4.12;71.05
61474;BME280;53694;49.784;30.150;2023-05-02T01:42:52;100392.39;;;4.43;70.63
61474;BME280;53694;49.784;30.150;2023-05-02T01:43:57;100397.63;;;4.81;69.63
61474;BME280;53694;49.784;30.150;2023-05-02T01:45:00;100397.36;;;5.18;68.72
61474;BME280;53694;49.784;30.150;2023-05-02T01:46:06;100395.59;;;5.59;67.33
61474;BME280;53694;49.784;30.150;2023-05-02T01:47:08;100367.29;;;5.91;66.53
61474;BME280;53694;49.784;30.150;2023-05-02T01:48:11;100397.88;;;6.10;65.97
61474;BME280;53694;49.784;30.150;2023-05-02T01:49:14;100400.80;;;6.14;65.44
61474;BME280;53694;49.784;30.150;2023-05-02T01:50:18;100395.48;;;6.09;65.06
61474;BME280;53694;49.784;30.150;2023-05-02T01:51:21;100403.91;;;5.98;64.93
61474;BME280;53694;49.784;30.150;2023-05-02T01:52:26;100400.75;;;5.83;64.92
61474;BME280;53694;49.784;30.150;2023-05-02T01:53:28;100401.44;;;5.66;65.15
61474;BME280;53694;49.784;30.150;2023-05-02T01:54:34;100408.35;;;5.49;65.64
61474;BME280;53694;49.784;30.150;2023-05-02T01:55:37;100403.24;;;5.34;66.18
61474;BME280;53694;49.784;30.150;2023-05-02T01:56:39;100407.94;;;5.20;66.81
61474;BME280;53694;49.784;30.150;2023-05-02T01:57:42;100406.05;;;5.07;67.25
61474;BME280;53694;49.784;30.150;2023-05-02T01:58:45;100408.48;;;4.94;67.43
61474;BME280;53694;49.784;30.150;2023-05-02T01:59:49;100411.72;;;4.83;67.61
61474;BME280;53694;49.784;30.150;2023-05-02T02:00:51;100413.85;;;4.72;67.70
61474;BME280;53694;49.784;30.150;2023-05-02T02:01:53;100412.44;;;4.61;67.81
61474;BME280;53694;49.784;30.150;2023-05-02T02:02:56;100410.73;;;4.51;67.92
61474;BME280;53694;49.784;30.150;2023-05-02T02:03:59;100407.10;;;4.42;68.21
61474;BME280;53694;49.784;30.150;2023-05-02T02:05:01;100417.84;;;4.33;68.27
61474;BME280;53694;49.784;30.150;2023-05-02T02:06:05;100424.80;;;4.25;68.53
61474;BME280;53694;49.784;30.150;2023-05-02T02:07:08;100416.53;;;4.17;68.98
61474;BME280;53694;49.784;30.150;2023-05-02T02:08:11;100419.13;;;4.08;69.29
61474;BME280;53694;49.784;30.150;2023-05-02T02:09:12;100422.74;;;4.04;69.83
61474;BME280;53694;49.784;30.150;2023-05-02T02:10:14;100419.59;;;3.96;70.18
61474;BME280;53694;49.784;30.150;2023-05-02T02:11:20;100418.89;;;3.91;70.15
61474;BME280;53694;49.784;30.150;2023-05-02T02:12:34;100425.48;;;3.85;70.43
61474;BME280;53694;49.784;30.150;2023-05-02T02:13:38;100427.90;;;3.86;70.66
61474;BME280;53694;49.784;30.150;2023-05-02T02:14:46;100428.09;;;4.09;70.43
61474;BME280;53694;49.784;30.150;2023-05-02T02:15:49;100429.45;;;4.39;69.49
61474;BME280;53694;49.784;30.150;2023-05-02T02:16:55;100427.35;;;4.77;68.39
61474;BME280;53694;49.784;30.150;2023-05-02T02:19:09;100424.83;;;5.44;66.49
61474;BME280;53694;49.784;30.150;2023-05-02T02:20:12;100427.69;;;5.62;65.73
61474;BME280;53694;49.784;30.150;2023-05-02T02:21:17;100430.09;;;5.63;65.15
61474;BME280;53694;49.784;30.150;2023-05-02T02:22:19;100420.25;;;5.54;64.56
61474;BME280;53694;49.784;30.150;2023-05-02T02:23:24;100416.26;;;5.37;64.55
61474;BME280;53694;49.784;30.150;2023-05-02T02:24:27;100424.27;;;5.20;64.88
61474;BME280;53694;49.784;30.150;2023-05-02T02:25:30;100430.35;;;5.03;65.66
61474;BME280;53694;49.784;30.150;2023-05-02T02:26:33;100428.25;;;4.86;65.96
61474;BME280;53694;49.784;30.150;2023-05-02T02:27:36;100435.62;;;4.72;66.67
61474;BME280;53694;49.784;30.150;2023-05-02T02:28:38;100430.95;;;4.59;67.15
61474;BME280;53694;49.784;30.150;2023-05-02T02:29:40;100432.28;;;4.47;67.64
61474;BME280;53694;49.784;30.150;2023-05-02T02:30:41;100429.23;;;4.35;67.66
61474;BME280;53694;49.784;30.150;2023-05-02T02:31:43;100437.59;;;4.25;67.81
61474;BME280;53694;49.784;30.150;2023-05-02T02:32:44;100435.03;;;4.15;68.43
61474;BME280;53694;49.784;30.150;2023-05-02T02:33:46;100437.94;;;4.05;68.97
61474;BME280;53694;49.784;30.150;2023-05-02T02:34:48;100433.46;;;3.95;69.24
61474;BME280;53694;49.784;30.150;2023-05-02T02:35:57;100430.34;;;3.88;69.65
61474;BME280;53694;49.784;30.150;2023-05-02T02:37:11;100428.30;;;3.80;70.03
61474;BME280;53694;49.784;30.150;2023-05-02T02:38:27;100436.31;;;3.71;70.36
61474;BME280;53694;49.784;30.150;2023-05-02T02:40:46;100433.37;;;3.67;70.97
61474;BME280;53694;49.784;30.150;2023-05-02T02:42:05;100434.79;;;3.97;70.88
61474;BME280;53694;49.784;30.150;2023-05-02T02:46:10;100435.20;;;5.42;67.44
61474;BME280;53694;49.784;30.150;2023-05-02T02:47:15;100435.02;;;5.97;65.24
61474;BME280;53694;49.784;30.150;2023-05-02T02:48:42;100430.27;;;6.34;63.74
61474;BME280;53694;49.784;30.150;2023-05-02T02:49:47;100440.24;;;6.39;62.91
61474;BME280;53694;49.784;30.150;2023-05-02T02:52:26;100441.27;;;5.98;63.69
61474;BME280;53694;49.784;30.150;2023-05-02T02:53:53;100442.50;;;5.69;64.23
61474;BME280;53694;49.784;30.150;2023-05-02T02:55:08;100438.37;;;5.36;64.72
61474;BME280;53694;49.784;30.150;2023-05-02T02:56:15;100441.73;;;5.05;65.41
61474;BME280;53694;49.784;30.150;2023-05-02T02:58:52;100451.84;;;4.63;66.45
61474;BME280;53694;49.784;30.150;2023-05-02T03:01:17;100446.77;;;4.29;67.62
61474;BME280;53694;49.784;30.150;2023-05-02T03:02:21;100445.42;;;4.13;68.33
61474;BME280;53694;49.784;30.150;2023-05-02T03:03:25;100445.57;;;4.03;68.74
61474;BME280;53694;49.784;30.150;2023-05-02T03:04:30;100448.16;;;3.94;69.47
61474;BME280;53694;49.784;30.150;2023-05-02T03:05:33;100446.12;;;3.86;70.00
61474;BME280;53694;49.784;30.150;2023-05-02T03:06:35;100453.05;;;3.78;70.27
61474;BME280;53694;49.784;30.150;2023-05-02T03:07:37;100455.55;;;3.74;70.70
61474;BME280;53694;49.784;30.150;2023-05-02T03:08:39;100458.49;;;3.78;71.08
61474;BME280;53694;49.784;30.150;2023-05-02T03:09:47;100460.36;;;3.96;70.79
61474;BME280;53694;49.784;30.150;2023-05-02T03:10:49;100460.95;;;4.26;70.43
61474;BME280;53694;49.784;30.150;2023-05-02T03:11:50;100470.58;;;4.65;69.52
61474;BME280;53694;49.784;30.150;2023-05-02T03:12:52;100461.70;;;5.00;67.72
61474;BME280;53694;49.784;30.150;2023-05-02T03:13:53;100469.12;;;5.36;66.49
61474;BME280;53694;49.784;30.150;2023-05-02T03:15:07;100464.91;;;5.66;65.06
61474;BME280;53694;49.784;30.150;2023-05-02T03:16:11;100471.11;;;5.81;64.17
61474;BME280;53694;49.784;30.150;2023-05-02T03:17:08;100473.03;;;5.80;63.54
61474;BME280;53694;49.784;30.150;2023-05-02T03:18:10;100472.48;;;5.69;63.67
61474;BME280;53694;49.784;30.150;2023-05-02T03:19:12;100460.59;;;5.51;63.97
61474;BME280;53694;49.784;30.150;2023-05-02T03:20:13;100464.60;;;5.32;64.57
61474;BME280;53694;49.784;30.150;2023-05-02T03:21:15;100466.95;;;5.11;65.13
61474;BME280;53694;49.784;30.150;2023-05-02T03:22:16;100476.85;;;4.93;65.56
61474;BME280;53694;49.784;30.150;2023-05-02T03:23:18;100474.20;;;4.74;66.21
61474;BME280;53694;49.784;30.150;2023-05-02T03:24:19;100476.41;;;4.58;66.70
61474;BME280;53694;49.784;30.150;2023-05-02T03:25:21;100479.42;;;4.43;67.27
61474;BME280;53694;49.784;30.150;2023-05-02T03:26:22;100473.95;;;4.29;67.87
61474;BME280;53694;49.784;30.150;2023-05-02T03:27:24;100476.34;;;4.17;68.68
61474;BME280;53694;49.784;30.150;2023-05-02T03:28:25;100474.39;;;4.04;69.40
61474;BME280;53694;49.784;30.150;2023-05-02T03:29:27;100477.25;;;3.93;69.74
61474;BME280;53694;49.784;30.150;2023-05-02T03:30:29;100480.64;;;3.85;70.28
61474;BME280;53694;49.784;30.150;2023-05-02T03:31:30;100478.59;;;3.77;70.57
61474;BME280;53694;49.784;30.150;2023-05-02T03:32:32;100482.50;;;3.71;70.87
61474;BME280;53694;49.784;30.150;2023-05-02T03:33:33;100475.95;;;3.72;71.29
61474;BME280;53694;49.784;30.150;2023-05-02T03:34:34;100474.92;;;3.87;70.93
61474;BME280;53694;49.784;30.150;2023-05-02T03:35:36;100472.29;;;4.14;70.55
61474;BME280;53694;49.784;30.150;2023-05-02T03:36:37;100479.81;;;4.50;69.58
61474;BME280;53694;49.784;30.150;2023-05-02T03:37:39;100475.84;;;4.89;68.45
61474;BME280;53694;49.784;30.150;2023-05-02T03:38:41;100470.28;;;5.58;65.99
61474;BME280;53694;49.784;30.150;2023-05-02T03:39:43;100470.28;;;5.58;65.99
61474;BME280;53694;49.784;30.150;2023-05-02T03:40:44;100470.44;;;5.75;65.54
61474;BME280;53694;49.784;30.150;2023-05-02T03:41:46;100469.19;;;5.81;65.49
61474;BME280;53694;49.784;30.150;2023-05-02T03:42:47;100471.72;;;5.77;65.20
61474;BME280;53694;49.784;30.150;2023-05-02T03:43:50;100468.12;;;5.68;65.42
61474;BME280;53694;49.784;30.150;2023-05-02T03:44:52;100470.28;;;5.58;65.78
61474;BME280;53694;49.784;30.150;2023-05-02T03:45:54;100458.60;;;5.43;66.35
61474;BME280;53694;49.784;30.150;2023-05-02T03:46:55;100470.66;;;5.29;66.78
61474;BME280;53694;49.784;30.150;2023-05-02T03:47:57;100476.12;;;5.15;67.01
61474;BME280;53694;49.784;30.150;2023-05-02T03:48:58;100469.58;;;5.02;67.26
61474;BME280;53694;49.784;30.150;2023-05-02T03:50:00;100476.02;;;4.92;67.53
61474;BME280;53694;49.784;30.150;2023-05-02T03:51:03;100481.67;;;4.82;67.76
61474;BME280;53694;49.784;30.150;2023-05-02T03:52:05;100482.38;;;4.74;68.10
61474;BME280;53694;49.784;30.150;2023-05-02T03:53:06;100481.95;;;4.67;68.55
61474;BME280;53694;49.784;30.150;2023-05-02T03:54:08;100492.94;;;4.62;68.99
61474;BME280;53694;49.784;30.150;2023-05-02T03:55:09;100484.87;;;4.57;69.49
61474;BME280;53694;49.784;30.150;2023-05-02T03:56:11;100483.86;;;4.53;69.92
61474;BME280;53694;49.784;30.150;2023-05-02T03:57:12;100488.28;;;4.48;70.19
61474;BME280;53694;49.784;30.150;2023-05-02T03:58:14;100497.55;;;4.47;70.27
61474;BME280;53694;49.784;30.150;2023-05-02T03:59:15;100499.27;;;4.43;70.86
61474;BME280;53694;49.784;30.150;2023-05-02T04:00:17;100499.16;;;4.48;71.11
61474;BME280;53694;49.784;30.150;2023-05-02T04:01:19;100494.75;;;4.66;70.59
61474;BME280;53694;49.784;30.150;2023-05-02T04:02:20;100490.63;;;4.96;70.07
61474;BME280;53694;49.784;30.150;2023-05-02T04:03:23;100493.12;;;5.34;69.35
61474;BME280;53694;49.784;30.150;2023-05-02T04:04:24;100498.69;;;5.79;68.20
61474;BME280;53694;49.784;30.150;2023-05-02T04:05:26;100497.43;;;6.21;66.87
61474;BME280;53694;49.784;30.150;2023-05-02T04:06:28;100495.23;;;6.55;65.86
61474;BME280;53694;49.784;30.150;2023-05-02T04:07:29;100502.85;;;6.75;65.15
61474;BME280;53694;49.784;30.150;2023-05-02T04:08:31;100499.36;;;6.83;64.31
61474;BME280;53694;49.784;30.150;2023-05-02T04:09:33;100505.62;;;6.84;63.74
61474;BME280;53694;49.784;30.150;2023-05-02T04:10:34;100505.47;;;6.80;63.04
61474;BME280;53694;49.784;30.150;2023-05-02T04:11:36;100505.91;;;6.73;63.14
61474;BME280;53694;49.784;30.150;2023-05-02T04:12:38;100511.33;;;6.65;62.63
61474;BME280;53694;49.784;30.150;2023-05-02T04:13:39;100503.41;;;6.55;61.99
61474;BME280;53694;49.784;30.150;2023-05-02T04:14:41;100507.14;;;6.36;63.04
61474;BME280;53694;49.784;30.150;2023-05-02T04:15:44;100507.14;;;6.36;63.04
61474;BME280;53694;49.784;30.150;2023-05-02T04:16:49;100505.96;;;6.29;63.35
61474;BME280;53694;49.784;30.150;2023-05-02T04:17:51;100514.92;;;6.20;63.78
61474;BME280;53694;49.784;30.150;2023-05-02T04:18:52;100506.84;;;6.15;64.26
61474;BME280;53694;49.784;30.150;2023-05-02T04:19:54;100512.13;;;6.12;64.61
61474;BME280;53694;49.784;30.150;2023-05-02T04:20:55;100507.58;;;6.07;64.97
61474;BME280;53694;49.784;30.150;2023-05-02T04:21:57;100507.90;;;6.06;65.14
61474;BME280;53694;49.784;30.150;2023-05-02T04:22:58;100506.30;;;6.05;65.74
61474;BME280;53694;49.784;30.150;2023-05-02T04:24:00;100502.45;;;6.06;65.69
61474;BME280;53694;49.784;30.150;2023-05-02T04:25:01;100502.45;;;6.06;65.69
61474;BME280;53694;49.784;30.150;2023-05-02T04:26:03;100514.34;;;6.10;65.60
61474;BME280;53694;49.784;30.150;2023-05-02T04:27:05;100511.01;;;6.13;65.08
61474;BME280;53694;49.784;30.150;2023-05-02T04:28:06;100511.48;;;6.15;64.20
61474;BME280;53694;49.784;30.150;2023-05-02T04:29:08;100507.64;;;6.16;64.87
61474;BME280;53694;49.784;30.150;2023-05-02T04:30:10;100507.34;;;6.17;63.73
61474;BME280;53694;49.784;30.150;2023-05-02T04:31:12;100508.63;;;6.20;62.66
61474;BME280;53694;49.784;30.150;2023-05-02T04:32:14;100505.61;;;6.21;62.13
61474;BME280;53694;49.784;30.150;2023-05-02T04:33:16;100504.68;;;6.26;61.58
61474;BME280;53694;49.784;30.150;2023-05-02T04:34:18;100513.05;;;6.30;61.29
61474;BME280;53694;49.784;30.150;2023-05-02T04:35:19;100507.46;;;6.35;61.02
61474;BME280;53694;49.784;30.150;2023-05-02T04:36:21;100506.20;;;6.41;60.88
61474;BME280;53694;49.784;30.150;2023-05-02T04:37:22;100505.27;;;6.45;60.87
61474;BME280;53694;49.784;30.150;2023-05-02T04:38:24;100510.61;;;6.50;60.46
61474;BME280;53694;49.784;30.150;2023-05-02T04:39:25;100512.41;;;6.55;60.03
61474;BME280;53694;49.784;30.150;2023-05-02T04:40:27;100514.19;;;6.60;59.81
61474;BME280;53694;49.784;30.150;2023-05-02T04:41:29;100512.92;;;6.66;59.67
61474;BME280;53694;49.784;30.150;2023-05-02T04:42:30;100517.81;;;6.78;58.48
61474;BME280;53694;49.784;30.150;2023-05-02T04:43:32;100517.81;;;6.78;58.48
61474;BME280;53694;49.784;30.150;2023-05-02T04:44:33;100507.55;;;6.83;58.61
61474;BME280;53694;49.784;30.150;2023-05-02T04:45:35;100519.95;;;6.89;58.41
61474;BME280;53694;49.784;30.150;2023-05-02T04:46:36;100524.14;;;6.95;58.22
61474;BME280;53694;49.784;30.150;2023-05-02T04:47:38;100515.51;;;7.02;57.93
61474;BME280;53694;49.784;30.150;2023-05-02T04:48:39;100520.83;;;7.07;57.51
61474;BME280;53694;49.784;30.150;2023-05-02T04:49:42;100519.55;;;7.13;57.49
61474;BME280;53694;49.784;30.150;2023-05-02T04:50:44;100520.52;;;7.17;56.93
61474;BME280;53694;49.784;30.150;2023-05-02T04:51:45;100517.34;;;7.24;56.72
61474;BME280;53694;49.784;30.150;2023-05-02T04:52:47;100517.19;;;7.29;56.29
61474;BME280;53694;49.784;30.150;2023-05-02T04:53:48;100517.54;;;7.36;56.05
61474;BME280;53694;49.784;30.150;2023-05-02T04:54:50;100511.76;;;7.46;55.48
61474;BME280;53694;49.784;30.150;2023-05-02T04:55:51;100511.76;;;7.46;55.48
61474;BME280;53694;49.784;30.150;2023-05-02T04:56:53;100509.70;;;7.52;55.34
61474;BME280;53694;49.784;30.150;2023-05-02T04:57:54;100511.78;;;7.64;55.05
61474;BME280;53694;49.784;30.150;2023-05-02T04:58:56;100511.78;;;7.64;55.05
61474;BME280;53694;49.784;30.150;2023-05-02T04:59:57;100503.45;;;7.69;55.01
61474;BME280;53694;49.784;30.150;2023-05-02T05:00:59;100510.03;;;7.76;55.41
61474;BME280;53694;49.784;30.150;2023-05-02T05:02:01;100506.02;;;7.83;55.06
61474;BME280;53694;49.784;30.150;2023-05-02T05:03:02;100506.66;;;7.88;54.80
61474;BME280;53694;49.784;30.150;2023-05-02T05:04:04;100507.30;;;7.94;54.50
61474;BME280;53694;49.784;30.150;2023-05-02T05:05:06;100511.80;;;7.98;54.04
61474;BME280;53694;49.784;30.150;2023-05-02T05:06:08;100512.13;;;8.06;53.01
61474;BME280;53694;49.784;30.150;2023-05-02T05:07:10;100510.35;;;8.10;52.75
61474;BME280;53694;49.784;30.150;2023-05-02T05:08:11;100514.85;;;8.14;52.55
61474;BME280;53694;49.784;30.150;2023-05-02T05:09:13;100514.68;;;8.19;51.43
61474;BME280;53694;49.784;30.150;2023-05-02T05:10:15;100510.97;;;8.24;50.51
61474;BME280;53694;49.784;30.150;2023-05-02T05:11:17;100517.90;;;8.30;50.41
61474;BME280;53694;49.784;30.150;2023-05-02T05:12:18;100519.33;;;8.36;50.10
61474;BME280;53694;49.784;30.150;2023-05-02T05:13:20;100520.02;;;8.42;49.57
61474;BME280;53694;49.784;30.150;2023-05-02T05:14:21;100514.36;;;8.47;49.43
61474;BME280;53694;49.784;30.150;2023-05-02T05:15:23;100524.00;;;8.53;49.04
61474;BME280;53694;49.784;30.150;2023-05-02T05:16:25;100519.48;;;8.57;48.30
61474;BME280;53694;49.784;30.150;2023-05-02T05:17:26;100512.71;;;8.63;48.05
61474;BME280;53694;49.784;30.150;2023-05-02T05:18:28;100518.47;;;8.70;47.27
61474;BME280;53694;49.784;30.150;2023-05-02T05:19:29;100523.00;;;8.75;46.73
61474;BME280;53694;49.784;30.150;2023-05-02T05:20:31;100522.47;;;8.82;46.61
61474;BME280;53694;49.784;30.150;2023-05-02T05:21:32;100518.75;;;8.86;46.36
61474;BME280;53694;49.784;30.150;2023-05-02T05:22:38;100520.19;;;8.92;45.90
61474;BME280;53694;49.784;30.150;2023-05-02T05:23:39;100523.88;;;8.96;46.19
61474;BME280;53694;49.784;30.150;2023-05-02T05:24:41;100524.49;;;9.02;46.00
61474;BME280;53694;49.784;30.150;2023-05-02T05:25:42;100518.83;;;9.07;46.21
61474;BME280;53694;49.784;30.150;2023-05-02T05:26:44;100526.85;;;9.12;45.64
61474;BME280;53694;49.784;30.150;2023-05-02T05:27:45;100517.64;;;9.17;45.21
61474;BME280;53694;49.784;30.150;2023-05-02T05:28:47;100520.22;;;9.22;45.61
61474;BME280;53694;49.784;30.150;2023-05-02T05:29:48;100521.16;;;9.26;45.02
61474;BME280;53694;49.784;30.150;2023-05-02T05:30:50;100522.08;;;9.30;45.09
61474;BME280;53694;49.784;30.150;2023-05-02T05:31:52;100527.40;;;9.35;45.30
61474;BME280;53694;49.784;30.150;2023-05-02T05:32:53;100525.27;;;9.41;45.31
61474;BME280;53694;49.784;30.150;2023-05-02T05:33:54;100527.80;;;9.46;44.21
61474;BME280;53694;49.784;30.150;2023-05-02T05:34:56;100522.95;;;9.51;43.89
61474;BME280;53694;49.784;30.150;2023-05-02T05:36:06;100522.75;;;9.57;43.40
61474;BME280;53694;49.784;30.150;2023-05-02T05:37:05;100525.64;;;9.60;43.52
61474;BME280;53694;49.784;30.150;2023-05-02T05:38:07;100522.35;;;9.67;43.44
61474;BME280;53694;49.784;30.150;2023-05-02T05:39:08;100515.06;;;9.71;42.88
61474;BME280;53694;49.784;30.150;2023-05-02T05:40:10;100516.00;;;9.75;43.02
61474;BME280;53694;49.784;30.150;2023-05-02T05:41:12;100519.69;;;9.79;43.28
61474;BME280;53694;49.784;30.150;2023-05-02T05:42:13;100526.11;;;9.83;43.17
61474;BME280;53694;49.784;30.150;2023-05-02T05:43:15;100520.41;;;9.88;42.82
61474;BME280;53694;49.784;30.150;2023-05-02T05:44:16;100526.84;;;9.92;43.02
61474;BME280;53694;49.784;30.150;2023-05-02T05:45:18;100523.89;;;9.97;43.08
61474;BME280;53694;49.784;30.150;2023-05-02T05:46:19;100525.31;;;10.04;42.95